createdAt,value
2019-03-10T00:00:57.665Z,8.30
2019-03-10T00:03:34.443Z,8.30
2019-03-10T00:06:12.630Z,8.30
2019-03-10T00:08:42.636Z,8.20
2019-03-10T00:11:11.768Z,8.20
2019-03-10T00:13:45.862Z,8.30
2019-03-10T00:16:29.849Z,8.20
2019-03-10T00:19:36.737Z,8.10
2019-03-10T00:22:58.158Z,8.10
2019-03-10T00:25:48.244Z,8.10
2019-03-10T00:28:19.110Z,8.10
2019-03-10T00:30:59.098Z,8.10
2019-03-10T00:33:32.328Z,8.10
2019-03-10T00:36:16.832Z,8.00
2019-03-10T00:39:07.941Z,8.10
2019-03-10T00:42:31.812Z,8.10
2019-03-10T00:45:54.635Z,8.00
2019-03-10T00:49:06.962Z,8.00
2019-03-10T00:52:07.946Z,8.10
2019-03-10T00:54:49.828Z,8.00
2019-03-10T00:57:57.794Z,8.00
2019-03-10T01:00:44.107Z,7.90
2019-03-10T01:03:38.274Z,7.90
2019-03-10T01:06:52.722Z,8.00
2019-03-10T01:09:27.659Z,8.00
2019-03-10T01:12:02.965Z,8.00
2019-03-10T01:15:03.239Z,8.00
2019-03-10T01:17:40.550Z,8.00
2019-03-10T01:20:24.821Z,8.00
2019-03-10T01:22:54.925Z,8.10
2019-03-10T01:25:33.858Z,8.10
2019-03-10T01:28:15.221Z,8.10
2019-03-10T01:30:55.109Z,8.20
2019-03-10T01:34:02.209Z,8.10
2019-03-10T01:36:44.761Z,8.10
2019-03-10T01:39:19.645Z,8.00
2019-03-10T01:41:57.924Z,8.00
2019-03-10T01:44:32.981Z,8.00
2019-03-10T01:47:13.214Z,8.00
2019-03-10T01:50:05.398Z,8.10
2019-03-10T01:53:00.486Z,8.20
2019-03-10T01:55:36.402Z,8.20
2019-03-10T01:58:07.637Z,8.20
2019-03-10T02:00:42.461Z,8.20
2019-03-10T02:03:15.602Z,8.20
2019-03-10T02:05:52.656Z,8.20
2019-03-10T02:08:52.215Z,8.50
2019-03-10T02:11:37.355Z,8.30
2019-03-10T02:14:18.395Z,8.40
2019-03-10T02:16:47.509Z,8.30
2019-03-10T02:19:52.954Z,8.30
2019-03-10T02:26:03.101Z,8.30
2019-03-10T02:29:08.325Z,8.30
2019-03-10T02:31:37.392Z,8.30
2019-03-10T02:34:31.837Z,8.30
2019-03-10T02:37:27.837Z,8.30
2019-03-10T02:40:45.229Z,8.40
2019-03-10T02:43:25.506Z,8.40
2019-03-10T02:46:38.962Z,8.40
2019-03-10T02:49:11.007Z,8.50
2019-03-10T02:52:37.117Z,8.40
2019-03-10T02:55:27.304Z,8.50
2019-03-10T02:58:06.445Z,8.50
2019-03-10T03:00:44.505Z,8.50
2019-03-10T03:03:14.387Z,8.50
2019-03-10T03:06:22.292Z,8.50
2019-03-10T03:09:06.925Z,8.50
2019-03-10T03:11:36.994Z,8.40
2019-03-10T03:14:18.302Z,8.40
2019-03-10T03:17:16.649Z,8.40
2019-03-10T03:19:55.626Z,8.30
2019-03-10T03:22:42.113Z,8.30
2019-03-10T03:26:05.878Z,8.20
2019-03-10T03:29:18.865Z,8.10
2019-03-10T03:31:48.906Z,8.10
2019-03-10T03:34:18.995Z,7.90
2019-03-10T03:37:41.922Z,7.80
2019-03-10T03:41:17.382Z,7.70
2019-03-10T03:43:49.519Z,7.70
2019-03-10T03:46:45.698Z,7.70
2019-03-10T03:49:48.154Z,7.60
2019-03-10T03:52:29.219Z,7.60
2019-03-10T03:55:06.090Z,7.60
2019-03-10T03:57:35.112Z,7.50
2019-03-10T04:00:06.389Z,7.50
2019-03-10T04:02:38.013Z,7.60
2019-03-10T04:05:33.215Z,7.60
2019-03-10T04:08:11.542Z,7.60
2019-03-10T04:10:53.005Z,7.60
2019-03-10T04:14:16.424Z,7.50
2019-03-10T04:17:22.045Z,7.50
2019-03-10T04:20:04.261Z,7.50
2019-03-10T04:27:06.070Z,7.50
2019-03-10T04:29:36.042Z,7.50
2019-03-10T04:35:49.449Z,7.50
2019-03-10T04:38:27.674Z,7.40
2019-03-10T04:41:50.954Z,7.40
2019-03-10T04:44:38.477Z,7.40
2019-03-10T04:47:47.746Z,7.30
2019-03-10T04:51:05.065Z,7.30
2019-03-10T04:53:41.999Z,7.30
2019-03-10T04:56:25.874Z,7.20
2019-03-10T04:59:20.056Z,7.20
2019-03-10T05:01:49.094Z,7.20
2019-03-10T05:04:18.116Z,7.10
2019-03-10T05:06:47.076Z,7.10
2019-03-10T05:09:15.955Z,6.90
2019-03-10T05:11:44.785Z,7.00
2019-03-10T05:14:13.625Z,7.00
2019-03-10T05:16:42.594Z,7.10
2019-03-10T05:19:11.520Z,7.20
2019-03-10T05:21:40.440Z,7.10
2019-03-10T05:24:12.454Z,7.10
2019-03-10T05:26:41.440Z,7.10
2019-03-10T05:29:10.276Z,7.10
2019-03-10T05:31:39.272Z,7.10
2019-03-10T05:34:08.191Z,7.10
2019-03-10T05:36:37.125Z,7.00
2019-03-10T05:39:07.624Z,7.10
2019-03-10T05:41:36.654Z,7.10
2019-03-10T05:44:05.737Z,7.00
2019-03-10T05:46:34.755Z,7.00
2019-03-10T05:49:04.451Z,6.90
2019-03-10T05:51:34.022Z,6.90
2019-03-10T05:54:04.108Z,6.90
2019-03-10T05:56:33.798Z,6.90
2019-03-10T05:59:03.590Z,6.90
2019-03-10T06:01:32.990Z,6.90
2019-03-10T06:04:02.833Z,6.90
2019-03-10T06:06:32.521Z,6.90
2019-03-10T06:09:02.194Z,6.90
2019-03-10T06:11:37.430Z,6.90
2019-03-10T06:14:06.764Z,7.00
2019-03-10T06:16:35.677Z,7.00
2019-03-10T06:19:04.684Z,7.00
2019-03-10T06:21:33.672Z,7.00
2019-03-10T06:24:02.692Z,7.10
2019-03-10T06:26:32.615Z,7.20
2019-03-10T06:29:08.709Z,7.20
2019-03-10T06:31:44.939Z,7.20
2019-03-10T06:34:16.116Z,7.30
2019-03-10T06:36:45.035Z,7.40
2019-03-10T06:39:26.177Z,7.30
2019-03-10T06:41:58.124Z,7.30
2019-03-10T06:44:26.980Z,7.40
2019-03-10T06:46:55.896Z,7.40
2019-03-10T06:49:26.897Z,7.50
2019-03-10T06:51:56.768Z,7.60
2019-03-10T06:55:07.960Z,7.70
2019-03-10T06:57:54.189Z,7.80
2019-03-10T07:00:37.490Z,7.80
2019-03-10T07:03:06.501Z,7.80
2019-03-10T07:05:35.524Z,7.90
2019-03-10T07:08:11.701Z,7.90
2019-03-10T07:10:42.897Z,8.00
2019-03-10T07:13:27.360Z,8.00
2019-03-10T07:16:06.312Z,8.10
2019-03-10T07:18:38.391Z,8.10
2019-03-10T07:21:20.514Z,8.20
2019-03-10T07:23:51.418Z,8.30
2019-03-10T07:26:32.518Z,8.30
2019-03-10T07:29:24.525Z,8.40
2019-03-10T07:32:36.527Z,8.50
2019-03-10T07:35:20.374Z,8.50
2019-03-10T07:38:17.661Z,8.50
2019-03-10T07:41:13.371Z,8.70
2019-03-10T07:44:02.009Z,8.80
2019-03-10T07:47:03.811Z,8.90
2019-03-10T07:50:19.962Z,8.90
2019-03-10T07:53:20.566Z,9.00
2019-03-10T07:56:03.249Z,9.10
2019-03-10T07:59:07.391Z,9.10
2019-03-10T08:01:44.178Z,9.20
2019-03-10T08:04:47.831Z,9.20
2019-03-10T08:07:35.011Z,9.30
2019-03-10T08:10:46.455Z,9.40
2019-03-10T08:13:37.114Z,9.50
2019-03-10T08:16:18.609Z,9.60
2019-03-10T08:19:42.197Z,9.60
2019-03-10T08:22:29.498Z,9.60
2019-03-10T08:25:28.154Z,9.60
2019-03-10T08:28:31.289Z,9.60
2019-03-10T08:31:15.596Z,9.60
2019-03-10T08:33:55.160Z,9.50
2019-03-10T08:36:53.664Z,9.50
2019-03-10T08:39:48.118Z,9.40
2019-03-10T08:42:35.370Z,9.40
2019-03-10T08:45:12.321Z,9.40
2019-03-10T08:48:01.856Z,9.40
2019-03-10T08:50:46.544Z,9.60
2019-03-10T08:53:20.483Z,9.60
2019-03-10T08:55:57.519Z,9.70
2019-03-10T08:58:51.063Z,9.80
2019-03-10T09:01:47.239Z,9.80
2019-03-10T09:04:54.820Z,9.70
2019-03-10T09:08:00.337Z,9.60
2019-03-10T09:10:57.162Z,9.60
2019-03-10T09:13:46.969Z,9.70
2019-03-10T09:16:51.527Z,9.70
2019-03-10T09:19:44.274Z,9.80
2019-03-10T09:22:31.839Z,9.80
2019-03-10T09:25:11.386Z,9.80
2019-03-10T09:27:54.699Z,9.90
2019-03-10T09:30:41.310Z,9.90
2019-03-10T09:33:44.527Z,10.00
2019-03-10T09:36:36.312Z,10.00
2019-03-10T09:39:40.452Z,9.90
2019-03-10T09:42:34.398Z,10.00
2019-03-10T09:45:15.122Z,10.00
2019-03-10T09:48:01.562Z,10.20
2019-03-10T09:50:36.427Z,10.20
2019-03-10T09:53:23.507Z,10.20
2019-03-10T09:56:12.906Z,10.20
2019-03-10T09:58:50.631Z,10.20
2019-03-10T10:01:29.148Z,10.30
2019-03-10T10:04:07.764Z,10.30
2019-03-10T10:06:54.346Z,10.40
2019-03-10T10:09:48.481Z,10.40
2019-03-10T10:12:48.730Z,10.40
2019-03-10T10:15:25.451Z,10.50
2019-03-10T10:18:19.582Z,10.70
2019-03-10T10:21:16.552Z,10.80
2019-03-10T10:24:05.294Z,10.80
2019-03-10T10:26:45.997Z,11.00
2019-03-10T10:29:36.837Z,11.20
2019-03-10T10:32:40.033Z,11.20
2019-03-10T10:35:30.481Z,11.30
2019-03-10T10:38:27.876Z,11.40
2019-03-10T10:41:21.810Z,11.20
2019-03-10T10:44:06.690Z,11.10
2019-03-10T10:47:15.982Z,11.10
2019-03-10T10:50:13.944Z,11.00
2019-03-10T10:53:21.637Z,11.00
2019-03-10T10:56:01.635Z,11.00
2019-03-10T10:58:54.326Z,11.00
2019-03-10T11:01:30.242Z,10.90
2019-03-10T11:04:18.437Z,10.90
2019-03-10T11:07:22.923Z,10.90
2019-03-10T11:10:20.088Z,11.00
2019-03-10T11:13:00.443Z,11.30
2019-03-10T11:15:53.760Z,11.70
2019-03-10T11:18:40.203Z,11.90
2019-03-10T11:21:28.297Z,12.10
2019-03-10T11:24:07.287Z,12.10
2019-03-10T11:27:01.298Z,12.20
2019-03-10T11:29:39.967Z,12.10
2019-03-10T11:32:28.155Z,11.70
2019-03-10T11:35:15.179Z,11.70
2019-03-10T11:37:53.237Z,11.60
2019-03-10T11:40:44.282Z,11.70
2019-03-10T11:43:32.110Z,11.70
2019-03-10T11:46:41.142Z,11.70
2019-03-10T11:49:18.912Z,11.70
2019-03-10T11:52:07.126Z,11.70
2019-03-10T11:55:09.878Z,11.80
2019-03-10T11:57:58.010Z,11.80
2019-03-10T12:00:48.243Z,11.80
2019-03-10T12:03:37.762Z,11.80
2019-03-10T12:06:28.871Z,11.80
2019-03-10T12:09:20.269Z,12.00
2019-03-10T12:11:50.155Z,12.30
2019-03-10T12:14:19.207Z,12.50
2019-03-10T12:16:54.035Z,12.60
2019-03-10T12:19:23.156Z,12.50
2019-03-10T12:21:55.680Z,12.30
2019-03-10T12:24:31.652Z,12.10
2019-03-10T12:27:00.786Z,12.00
2019-03-10T12:29:36.768Z,12.10
2019-03-10T12:32:17.993Z,12.20
2019-03-10T12:34:53.046Z,12.30
2019-03-10T12:37:26.216Z,12.40
2019-03-10T12:39:58.303Z,12.50
2019-03-10T12:42:35.297Z,12.30
2019-03-10T12:45:12.614Z,12.00
2019-03-10T12:47:41.825Z,11.80
2019-03-10T12:50:18.781Z,11.90
2019-03-10T12:52:53.799Z,12.10
2019-03-10T12:55:24.085Z,12.10
2019-03-10T12:57:55.377Z,12.10
2019-03-10T13:00:25.641Z,12.00
2019-03-10T13:02:54.790Z,12.10
2019-03-10T13:05:23.822Z,12.20
2019-03-10T13:07:53.247Z,12.20
2019-03-10T13:10:22.347Z,12.20
2019-03-10T13:12:52.498Z,12.20
2019-03-10T13:15:21.488Z,12.20
2019-03-10T13:17:50.562Z,12.20
2019-03-10T13:20:28.122Z,12.20
2019-03-10T13:22:51.447Z,12.20
2019-03-10T13:25:23.554Z,12.20
2019-03-10T13:27:54.639Z,12.20
2019-03-10T13:30:24.740Z,12.20
2019-03-10T13:32:53.735Z,12.20
2019-03-10T13:35:22.764Z,12.10
2019-03-10T13:37:51.792Z,12.00
2019-03-10T13:40:26.655Z,12.00
2019-03-10T13:42:55.735Z,12.00
2019-03-10T13:45:24.749Z,12.10
2019-03-10T13:47:53.714Z,12.10
2019-03-10T13:50:23.747Z,12.20
2019-03-10T13:52:52.703Z,12.20
2019-03-10T13:55:21.730Z,12.20
2019-03-10T13:57:50.734Z,12.10
2019-03-10T14:00:22.479Z,12.20
2019-03-10T14:02:51.532Z,12.30
2019-03-10T14:05:20.630Z,12.50
2019-03-10T14:07:49.667Z,12.60
2019-03-10T14:10:18.677Z,12.50
2019-03-10T14:12:48.741Z,12.30
2019-03-10T14:15:19.930Z,12.20
2019-03-10T14:17:49.907Z,12.20
2019-03-10T14:20:19.940Z,12.30
2019-03-10T14:22:49.047Z,12.30
2019-03-10T14:25:18.074Z,12.20
2019-03-10T14:27:47.130Z,12.20
2019-03-10T14:30:16.179Z,12.30
2019-03-10T14:32:47.303Z,12.20
2019-03-10T14:35:16.810Z,12.20
2019-03-10T14:37:47.870Z,12.30
2019-03-10T14:40:19.255Z,12.30
2019-03-10T14:42:48.375Z,12.50
2019-03-10T14:45:19.614Z,12.50
2019-03-10T14:47:57.725Z,12.50
2019-03-10T14:50:26.895Z,12.40
2019-03-10T14:52:55.915Z,12.30
2019-03-10T14:55:24.973Z,12.20
2019-03-10T14:57:54.022Z,12.10
2019-03-10T15:00:23.188Z,11.90
2019-03-10T15:02:52.227Z,11.70
2019-03-10T15:05:21.249Z,11.70
2019-03-10T15:07:50.382Z,11.70
2019-03-10T15:10:20.814Z,11.60
2019-03-10T15:12:55.822Z,11.70
2019-03-10T15:15:25.071Z,11.60
2019-03-10T15:17:56.278Z,11.40
2019-03-10T15:20:31.402Z,11.30
2019-03-10T15:23:00.511Z,11.10
2019-03-10T15:25:31.586Z,11.10
2019-03-10T15:28:01.683Z,11.10
2019-03-10T15:30:31.876Z,11.00
2019-03-10T15:33:02.154Z,10.90
2019-03-10T15:35:31.190Z,10.80
2019-03-10T15:38:00.436Z,10.60
2019-03-10T15:40:33.682Z,10.40
2019-03-10T15:43:02.880Z,10.20
2019-03-10T15:45:34.030Z,9.90
2019-03-10T15:48:03.180Z,9.80
2019-03-10T15:50:34.371Z,9.70
2019-03-10T15:53:03.592Z,9.60
2019-03-10T15:55:34.822Z,9.60
2019-03-10T15:58:04.998Z,9.70
2019-03-10T16:00:47.401Z,9.70
2019-03-10T16:03:16.472Z,9.80
2019-03-10T16:05:45.630Z,9.80
2019-03-10T16:08:14.729Z,9.80
2019-03-10T16:10:44.971Z,9.80
2019-03-10T16:13:14.359Z,9.80
2019-03-10T16:15:43.537Z,9.80
2019-03-10T16:18:12.749Z,9.80
2019-03-10T16:20:44.096Z,9.80
2019-03-10T16:23:19.300Z,9.80
2019-03-10T16:25:48.390Z,9.80
2019-03-10T16:28:17.440Z,9.70
2019-03-10T16:30:46.465Z,9.70
2019-03-10T16:33:15.548Z,9.80
2019-03-10T16:35:45.637Z,9.70
2019-03-10T16:38:20.732Z,9.70
2019-03-10T16:40:54.792Z,9.60
2019-03-10T16:43:26.829Z,9.50
2019-03-10T16:45:55.911Z,9.50
2019-03-10T16:48:25.998Z,9.50
2019-03-10T16:51:13.376Z,9.40
2019-03-10T16:53:43.542Z,9.40
2019-03-10T16:56:13.644Z,9.40
2019-03-10T16:58:44.589Z,9.30
2019-03-10T17:01:14.655Z,9.30
2019-03-10T17:03:43.781Z,9.20
2019-03-10T17:06:12.968Z,9.30
2019-03-10T17:08:41.989Z,9.30
2019-03-10T17:11:17.293Z,9.30
2019-03-10T17:13:46.416Z,9.30
2019-03-10T17:16:16.560Z,9.20
2019-03-10T17:18:51.786Z,9.20
2019-03-10T17:21:21.893Z,9.10
2019-03-10T17:23:57.240Z,9.10
2019-03-10T17:26:26.573Z,9.00
2019-03-10T17:28:56.593Z,8.90
2019-03-10T17:31:25.759Z,8.80
2019-03-10T17:33:54.861Z,8.80
2019-03-10T17:36:23.940Z,8.70
2019-03-10T17:38:52.980Z,8.70
2019-03-10T17:41:21.974Z,8.70
2019-03-10T17:43:56.779Z,8.60
2019-03-10T17:46:26.859Z,8.50
2019-03-10T17:48:57.173Z,8.40
2019-03-10T17:51:26.296Z,8.40
2019-03-10T17:53:55.321Z,8.30
2019-03-10T17:56:32.735Z,8.30
2019-03-10T17:59:01.946Z,8.40
2019-03-10T18:01:31.240Z,8.50
2019-03-10T18:04:00.498Z,8.50
2019-03-10T18:06:37.754Z,8.60
2019-03-10T18:09:07.789Z,8.70
2019-03-10T18:11:37.014Z,8.70
2019-03-10T18:14:12.116Z,8.70
2019-03-10T18:16:42.242Z,8.70
2019-03-10T18:19:11.345Z,8.80
2019-03-10T18:21:40.342Z,8.80
2019-03-10T18:24:09.415Z,8.60
2019-03-10T18:26:46.607Z,8.30
2019-03-10T18:29:16.637Z,8.10
2019-03-10T18:31:45.654Z,8.00
2019-03-10T18:34:33.718Z,7.90
2019-03-10T18:37:02.874Z,7.80
2019-03-10T18:39:44.150Z,7.80
2019-03-10T18:42:14.116Z,7.80
2019-03-10T18:44:43.269Z,7.80
2019-03-10T18:47:13.576Z,7.90
2019-03-10T18:49:43.570Z,7.90
2019-03-10T18:52:14.639Z,7.90
2019-03-10T18:54:43.914Z,8.00
2019-03-10T18:57:13.000Z,7.60
2019-03-10T18:59:42.166Z,6.80
2019-03-10T19:02:12.253Z,6.30
2019-03-10T19:04:42.318Z,5.80
2019-03-10T19:07:11.439Z,5.70
2019-03-10T19:09:42.502Z,5.50
2019-03-10T19:12:19.553Z,5.50
2019-03-10T19:14:48.611Z,5.50
2019-03-10T19:17:17.586Z,5.40
2019-03-10T19:19:46.447Z,5.30
2019-03-10T19:22:15.538Z,5.30
2019-03-10T19:24:44.769Z,5.40
2019-03-10T19:27:13.813Z,5.40
2019-03-10T19:29:42.868Z,5.20
2019-03-10T19:32:11.934Z,5.20
2019-03-10T19:34:40.878Z,5.20
2019-03-10T19:37:10.032Z,5.20
2019-03-10T19:39:38.967Z,5.20
2019-03-10T19:42:08.119Z,5.20
2019-03-10T19:44:40.331Z,5.20
2019-03-10T19:47:11.641Z,5.20
2019-03-10T19:49:40.678Z,5.30
2019-03-10T19:52:10.658Z,5.30
2019-03-10T19:54:40.621Z,5.30
2019-03-10T19:57:09.658Z,5.30
2019-03-10T19:59:38.702Z,5.30
2019-03-10T20:02:07.669Z,5.40
2019-03-10T20:04:37.466Z,5.30
2019-03-10T20:07:07.565Z,5.40
2019-03-10T20:09:36.600Z,5.40
2019-03-10T20:12:05.596Z,5.40
2019-03-10T20:14:34.621Z,5.40
2019-03-10T20:17:03.627Z,5.40
2019-03-10T20:19:32.657Z,5.40
2019-03-10T20:22:01.610Z,5.50
2019-03-10T20:24:30.552Z,5.50
2019-03-10T20:26:59.564Z,5.60
2019-03-10T20:29:28.638Z,5.60
2019-03-10T20:31:57.719Z,5.50
2019-03-10T20:34:28.747Z,5.40
2019-03-10T20:36:58.702Z,5.40
2019-03-10T20:39:36.773Z,5.40
2019-03-10T20:42:08.941Z,5.40
2019-03-10T20:44:39.045Z,5.40
2019-03-10T20:47:14.277Z,5.30
2019-03-10T20:49:43.378Z,5.30
2019-03-10T20:52:13.478Z,5.40
2019-03-10T20:54:42.506Z,5.40
2019-03-10T20:57:11.561Z,5.40
2019-03-10T20:59:48.410Z,5.30
2019-03-10T21:02:21.539Z,5.30
2019-03-10T21:04:50.870Z,5.30
2019-03-10T21:07:33.037Z,5.20
2019-03-10T21:10:02.141Z,5.10
2019-03-10T21:12:40.637Z,5.20
2019-03-10T21:15:06.635Z,5.10
2019-03-10T21:17:37.912Z,5.10
2019-03-10T21:20:09.231Z,5.10
2019-03-10T21:22:38.250Z,5.10
2019-03-10T21:25:10.781Z,5.10
2019-03-10T21:27:39.818Z,5.10
2019-03-10T21:30:12.148Z,5.10
2019-03-10T21:32:44.211Z,5.10
2019-03-10T21:35:17.874Z,5.10
2019-03-10T21:37:48.402Z,5.20
2019-03-10T21:40:28.516Z,5.20
2019-03-10T21:42:57.545Z,5.10
2019-03-10T21:45:30.826Z,5.10
2019-03-10T21:47:59.934Z,5.20
2019-03-10T21:50:29.042Z,5.20
2019-03-10T21:53:20.078Z,5.10
2019-03-10T21:55:53.206Z,5.10
2019-03-10T21:58:22.304Z,5.10
2019-03-10T22:00:51.495Z,5.10
2019-03-10T22:03:20.630Z,5.00
2019-03-10T22:05:50.715Z,5.10
2019-03-10T22:08:19.687Z,5.10
2019-03-10T22:10:58.024Z,5.10
2019-03-10T22:13:27.049Z,5.10
2019-03-10T22:16:15.141Z,5.10
2019-03-10T22:19:22.299Z,5.10
2019-03-10T22:21:45.090Z,5.00
2019-03-10T22:24:20.341Z,5.10
2019-03-10T22:26:49.463Z,5.10
2019-03-10T22:29:21.460Z,5.20
2019-03-10T22:31:50.346Z,5.30
2019-03-10T22:34:19.447Z,5.40
2019-03-10T22:36:48.321Z,5.30
2019-03-10T22:39:26.211Z,5.40
2019-03-10T22:41:55.219Z,5.40
2019-03-10T22:44:30.221Z,5.50
2019-03-10T22:47:02.365Z,5.40
2019-03-10T22:49:31.474Z,5.40
2019-03-10T22:52:01.509Z,5.40
2019-03-10T22:54:32.645Z,5.30
2019-03-10T22:57:01.650Z,5.30
2019-03-10T22:59:30.668Z,5.30
2019-03-10T23:01:59.712Z,5.30
2019-03-10T23:04:28.741Z,5.30
2019-03-10T23:06:58.838Z,5.30
2019-03-10T23:09:27.804Z,5.30
2019-03-10T23:11:56.932Z,5.20
2019-03-10T23:14:32.807Z,5.10
2019-03-10T23:17:01.686Z,5.10
2019-03-10T23:19:30.985Z,5.10
2019-03-10T23:21:59.890Z,5.00
2019-03-10T23:24:28.911Z,4.90
2019-03-10T23:27:01.013Z,4.90
2019-03-10T23:29:36.373Z,4.90
2019-03-10T23:32:05.444Z,4.90
2019-03-10T23:34:40.139Z,4.90
2019-03-10T23:37:10.106Z,4.70
2019-03-10T23:39:39.105Z,4.70
2019-03-10T23:42:17.246Z,4.70
2019-03-10T23:44:46.298Z,4.60
2019-03-10T23:47:25.122Z,4.60
2019-03-10T23:49:55.164Z,4.60
2019-03-10T23:52:26.181Z,4.50
2019-03-10T23:55:03.377Z,4.50
2019-03-10T23:57:38.572Z,4.50
